»·PEaware :: N416JK KHQM-S23

N416JK :: KHQM-S23

FLIGHT INFORMATION

Flight Status: Arrived
Operator: Privately registered:
United States
More flights under this callsign
Pilot: John K. (4202)
Aircraft: Unknown
(EPIC)
More flights by this aircraft type
Origin: KHQM Bowerman
United States
Destination: S23 Ione Mun
United States
More flights between these airports :: More routes between these airports
Route: +SOUPY V204 OLM V187 ELN V336 EPH V120 GEG V112 CEMOM
File this flight plan on PilotEdge
Remarks:
Altitude:
(Current/Filed)
13,000ft
Speed:
(Current/Filed)
300kts
Departed: 04-May-20 08:11 AM
Arrived: 04-May-20 09:23 AM
Distance/Time
Traveled:
283nm/1:12
Distance/Time
To Go:
Arrived

Flight Plot

Page will automatically refresh every two minutes.

Flight plan parsing failed; only flown route is shown


Map Options




Map Legend


Flown Route
Filed Route
Departure Airport
Arrival Airport
Navaid (VOR, NDB)
Fix

Horizontal Profiles

Position Reports

Time Latitude Longitude Heading Altitude Ground
Speed
04-May-20 07:58 46.973851 -123.928582 141 22ft 0kts
04-May-20 07:59 46.973851 -123.928582 141 22ft 0kts
04-May-20 08:00 46.973851 -123.928582 141 22ft 0kts
04-May-20 08:01 46.973851 -123.928582 141 22ft 0kts
04-May-20 08:02 46.973851 -123.928582 141 22ft 0kts
04-May-20 08:03 46.972751 -123.932436 259 22ft 24kts
04-May-20 08:04 46.971194 -123.945557 255 22ft 15kts
04-May-20 08:05 46.971124 -123.945755 227 22ft 0kts
04-May-20 08:06 46.971124 -123.945755 227 22ft 0kts
04-May-20 08:07 46.971124 -123.945755 227 22ft 0kts
04-May-20 08:08 46.971124 -123.945755 227 22ft 0kts
04-May-20 08:09 46.971124 -123.945755 227 22ft 0kts
04-May-20 08:10 46.972880 -123.927636 79 382ft 152kts
04-May-20 08:11 46.956966 -123.852175 81 1777ft 244kts
04-May-20 08:12 46.962138 -123.753591 88 3423ft 257kts
04-May-20 08:13 46.963140 -123.651945 89 5074ft 257kts
04-May-20 08:14 46.963302 -123.549220 89 6737ft 259kts
04-May-20 08:15 46.963245 -123.446576 89 8387ft 261kts
04-May-20 08:17 46.964514 -123.342276 88 10052ft 261kts
04-May-20 08:18 46.966317 -123.241039 88 11676ft 258kts
04-May-20 08:19 46.968042 -123.134331 88 12724ft 286kts
04-May-20 08:20 46.969809 -123.018786 88 12726ft 310kts
04-May-20 08:21 46.982571 -122.900598 46 12717ft 316kts
04-May-20 08:22 47.052402 -122.831913 31 12725ft 317kts
04-May-20 08:23 47.124454 -122.767705 31 12725ft 318kts
04-May-20 08:24 47.156972 -122.665945 91 12726ft 318kts
04-May-20 08:25 47.151861 -122.547807 94 12725ft 318kts
04-May-20 08:26 47.143969 -122.423647 96 12725ft 318kts
04-May-20 08:27 47.135073 -122.303267 96 12725ft 318kts
04-May-20 08:28 47.129374 -122.225416 95 12725ft 318kts
04-May-20 08:29 47.120487 -122.105855 96 12725ft 318kts
04-May-20 08:30 47.110993 -121.980811 96 12725ft 318kts
04-May-20 08:31 47.101795 -121.859808 96 12725ft 318kts
04-May-20 08:31 47.093901 -121.756590 96 12725ft 318kts
04-May-20 08:33 47.083025 -121.619383 96 12725ft 318kts
04-May-20 08:34 47.074345 -121.509625 94 12723ft 318kts
04-May-20 08:34 47.069294 -121.405045 93 12725ft 318kts
04-May-20 08:35 47.063194 -121.278767 93 12725ft 318kts
04-May-20 08:37 47.055957 -121.132202 93 12725ft 318kts
04-May-20 08:37 47.050665 -121.027357 93 12725ft 318kts
04-May-20 08:38 47.044567 -120.903169 93 12725ft 318kts
04-May-20 08:40 47.038326 -120.756767 93 12725ft 318kts
04-May-20 08:40 47.033605 -120.652725 93 12725ft 318kts
04-May-20 08:41 47.027717 -120.526181 93 12725ft 318kts
04-May-20 08:42 47.043294 -120.405965 63 12726ft 318kts
04-May-20 08:43 47.080820 -120.295929 63 12725ft 318kts
04-May-20 08:44 47.119951 -120.182383 62 12725ft 318kts
04-May-20 08:45 47.158980 -120.068999 62 12725ft 318kts
04-May-20 08:46 47.197886 -119.955253 62 12725ft 318kts
04-May-20 08:47 47.235069 -119.847188 63 12725ft 318kts
04-May-20 08:48 47.273953 -119.733241 63 12725ft 318kts
04-May-20 08:49 47.302776 -119.648113 63 12725ft 318kts
04-May-20 08:50 47.341097 -119.534463 63 12725ft 318kts
04-May-20 08:51 47.377875 -119.421278 76 12706ft 318kts
04-May-20 08:52 47.392312 -119.295312 80 12725ft 318kts
04-May-20 08:53 47.405960 -119.171988 80 12725ft 318kts
04-May-20 08:54 47.419697 -119.045230 80 12725ft 318kts
04-May-20 08:55 47.433198 -118.919667 80 12725ft 318kts
04-May-20 08:56 47.446866 -118.794916 81 12725ft 318kts
04-May-20 08:57 47.460220 -118.669494 81 12725ft 318kts
04-May-20 08:58 47.473751 -118.540438 81 12725ft 318kts
04-May-20 08:59 47.486981 -118.412763 81 12725ft 318kts
04-May-20 09:00 47.500093 -118.284782 81 12725ft 318kts
04-May-20 09:01 47.513037 -118.156992 81 12725ft 318kts
04-May-20 09:02 47.526127 -118.027185 84 12794ft 322kts
04-May-20 09:03 47.538965 -117.895920 82 12994ft 331kts
04-May-20 09:04 47.552125 -117.761234 80 12990ft 337kts
04-May-20 09:05 47.573616 -117.632355 43 12981ft 330kts
04-May-20 09:06 47.647814 -117.566595 23 12991ft 323kts
04-May-20 09:07 47.726974 -117.506793 22 13000ft 323kts
04-May-20 09:08 47.804047 -117.449172 22 13018ft 321kts
04-May-20 09:09 47.881649 -117.396499 0 13010ft 312kts
04-May-20 09:10 47.965106 -117.396217 355 13018ft 309kts
04-May-20 09:11 48.048132 -117.397878 354 13018ft 303kts
04-May-20 09:12 48.128785 -117.399685 354 13018ft 293kts
04-May-20 09:13 48.207140 -117.401472 354 12370ft 284kts
04-May-20 09:14 48.282163 -117.403209 355 10917ft 277kts
04-May-20 09:15 48.354963 -117.404856 355 10125ft 255kts
04-May-20 09:16 48.420487 -117.406350 354 10022ft 231kts
04-May-20 09:17 48.479945 -117.407730 354 10023ft 215kts
04-May-20 09:18 48.537627 -117.409076 354 10024ft 208kts
04-May-20 09:19 48.598656 -117.404130 2 8947ft 196kts
04-May-20 09:20 48.640477 -117.397176 1 5870ft 166kts
04-May-20 09:21 48.680577 -117.402037 348 3404ft 94kts
04-May-20 09:22 48.705836 -117.412226 348 2111ft 36kts
04-May-20 09:23 48.711978 -117.414407 350 2111ft 27kts
04-May-20 09:24 48.713609 -117.414929 343 2111ft 0kts

Navigation Log

Ident Type
Flight plan parsing failed, navigation log unavailable